createdAt,value
2022-08-21T00:00:27.960Z,3.45
2022-08-21T00:03:02.235Z,3.65
2022-08-21T00:05:31.175Z,3.95
2022-08-21T00:07:59.220Z,3.70
2022-08-21T00:10:28.215Z,3.47
2022-08-21T00:12:56.772Z,3.75
2022-08-21T00:15:28.184Z,4.32
2022-08-21T00:17:56.486Z,3.70
2022-08-21T00:20:26.159Z,4.63
2022-08-21T00:22:54.295Z,4.55
2022-08-21T00:25:24.977Z,3.90
2022-08-21T00:27:54.480Z,3.70
2022-08-21T00:30:24.627Z,3.40
2022-08-21T00:32:53.761Z,3.70
2022-08-21T00:35:24.780Z,3.70
2022-08-21T00:37:54.412Z,4.03
2022-08-21T00:40:32.594Z,4.30
2022-08-21T00:43:00.711Z,3.78
2022-08-21T00:45:29.606Z,3.97
2022-08-21T00:47:58.199Z,3.42
2022-08-21T00:50:31.457Z,3.28
2022-08-21T00:53:03.771Z,3.80
2022-08-21T00:55:33.818Z,3.60
2022-08-21T00:58:06.888Z,3.47
2022-08-21T01:00:40.883Z,3.75
2022-08-21T01:03:13.469Z,4.40
2022-08-21T01:05:42.958Z,3.63
2022-08-21T01:08:12.752Z,4.38
2022-08-21T01:10:42.145Z,3.25
2022-08-21T01:13:12.313Z,4.37
2022-08-21T01:18:15.720Z,4.03
2022-08-21T01:20:46.469Z,3.78
2022-08-21T01:23:16.413Z,4.32
2022-08-21T01:25:44.535Z,4.03
2022-08-21T01:28:16.114Z,4.55
2022-08-21T01:30:47.193Z,5.05
2022-08-21T01:33:15.334Z,4.70
2022-08-21T01:35:43.411Z,4.38
2022-08-21T01:38:11.387Z,4.63
2022-08-21T01:40:40.837Z,5.47
2022-08-21T01:43:08.849Z,4.70
2022-08-21T01:45:36.936Z,4.18
2022-08-21T01:48:05.667Z,5.00
2022-08-21T01:50:33.927Z,4.38
2022-08-21T01:53:01.940Z,4.60
2022-08-21T01:55:29.999Z,4.38
2022-08-21T01:58:01.308Z,4.72
2022-08-21T02:00:29.350Z,4.45
2022-08-21T02:02:57.827Z,5.07
2022-08-21T02:05:26.298Z,4.43
2022-08-21T02:07:56.437Z,5.07
2022-08-21T02:10:28.520Z,5.35
2022-08-21T02:12:57.812Z,6.30
2022-08-21T02:15:27.312Z,4.37
2022-08-21T02:17:58.092Z,5.27
2022-08-21T02:20:29.551Z,5.97
2022-08-21T02:22:57.953Z,6.97
2022-08-21T02:25:28.101Z,10.85
2022-08-21T02:27:57.359Z,6.35
2022-08-21T02:30:28.894Z,4.68
2022-08-21T02:32:58.041Z,4.78
2022-08-21T02:35:26.264Z,4.85
2022-08-21T02:37:56.293Z,5.10
2022-08-21T02:40:27.085Z,4.70
2022-08-21T02:42:55.586Z,5.63
2022-08-21T02:45:23.643Z,5.80
2022-08-21T02:47:55.006Z,5.32
2022-08-21T02:50:28.246Z,5.75
2022-08-21T02:52:57.754Z,5.43
2022-08-21T02:55:28.688Z,5.95
2022-08-21T02:57:58.239Z,5.78
2022-08-21T03:00:30.375Z,5.65
2022-08-21T03:03:00.231Z,5.97
2022-08-21T03:05:32.006Z,5.43
2022-08-21T03:08:01.618Z,6.43
2022-08-21T03:10:31.866Z,6.03
2022-08-21T03:13:01.149Z,5.30
2022-08-21T03:15:29.423Z,5.47
2022-08-21T03:17:59.179Z,5.63
2022-08-21T03:20:29.595Z,6.18
2022-08-21T03:22:57.732Z,5.78
2022-08-21T03:25:38.882Z,5.60
2022-08-21T03:28:13.178Z,6.63
2022-08-21T03:30:42.575Z,7.20
2022-08-21T03:33:14.944Z,7.80
2022-08-21T03:35:44.608Z,7.68
2022-08-21T03:38:14.149Z,6.88
2022-08-21T03:40:42.333Z,7.47
2022-08-21T03:43:11.308Z,5.68
2022-08-21T03:45:40.338Z,6.95
2022-08-21T03:48:10.119Z,7.43
2022-08-21T03:50:42.620Z,7.60
2022-08-21T03:53:17.639Z,9.38
2022-08-21T03:55:46.474Z,8.98
2022-08-21T03:58:16.736Z,8.70
2022-08-21T04:00:46.160Z,8.57
2022-08-21T04:03:14.463Z,8.02
2022-08-21T04:05:46.373Z,8.18
2022-08-21T04:08:16.071Z,7.68
2022-08-21T04:10:45.835Z,7.30
2022-08-21T04:13:15.578Z,6.70
2022-08-21T04:15:43.808Z,6.70
2022-08-21T04:18:12.036Z,7.03
2022-08-21T04:20:40.899Z,7.38
2022-08-21T04:23:10.266Z,7.47
2022-08-21T04:25:38.375Z,7.83
2022-08-21T04:28:06.623Z,7.60
2022-08-21T04:30:35.121Z,7.32
2022-08-21T04:33:03.995Z,6.68
2022-08-21T04:35:32.402Z,6.88
2022-08-21T04:38:00.618Z,7.32
2022-08-21T04:40:30.979Z,7.30
2022-08-21T04:43:05.057Z,7.13
2022-08-21T04:45:35.690Z,7.28
2022-08-21T04:48:08.689Z,7.80
2022-08-21T04:50:43.891Z,6.90
2022-08-21T04:53:16.571Z,7.43
2022-08-21T04:55:46.897Z,7.57
2022-08-21T05:00:46.290Z,7.30
2022-08-21T05:03:15.408Z,6.75
2022-08-21T05:05:44.578Z,6.60
2022-08-21T05:08:16.668Z,6.28
2022-08-21T05:10:46.660Z,6.32
2022-08-21T05:13:15.374Z,7.68
2022-08-21T05:15:43.953Z,7.55
2022-08-21T05:18:12.313Z,7.72
2022-08-21T05:20:40.659Z,7.55
2022-08-21T05:23:10.366Z,7.35
2022-08-21T05:25:38.720Z,7.00
2022-08-21T05:28:08.473Z,7.00
2022-08-21T05:30:37.665Z,7.53
2022-08-21T05:33:08.203Z,7.40
2022-08-21T05:35:37.085Z,7.80
2022-08-21T05:38:06.050Z,7.50
2022-08-21T05:40:45.213Z,7.70
2022-08-21T05:43:15.160Z,7.15
2022-08-21T05:45:44.352Z,8.77
2022-08-21T05:48:15.180Z,8.97
2022-08-21T05:50:44.047Z,8.05
2022-08-21T05:53:12.331Z,8.38
2022-08-21T05:55:45.599Z,8.77
2022-08-21T05:58:17.509Z,8.90
2022-08-21T06:00:48.489Z,9.18
2022-08-21T06:03:19.275Z,8.45
2022-08-21T06:05:47.826Z,9.15
2022-08-21T06:08:17.182Z,8.88
2022-08-21T06:10:45.707Z,9.27
2022-08-21T06:13:16.168Z,8.88
2022-08-21T06:15:44.205Z,9.90
2022-08-21T06:18:12.413Z,8.60
2022-08-21T06:20:40.991Z,9.43
2022-08-21T06:23:09.551Z,8.23
2022-08-21T06:25:37.831Z,8.40
2022-08-21T06:28:08.155Z,8.65
2022-08-21T06:30:39.491Z,8.23
2022-08-21T06:33:08.133Z,8.88
2022-08-21T06:35:37.189Z,8.13
2022-08-21T06:38:09.371Z,9.32
2022-08-21T06:40:37.501Z,9.15
2022-08-21T06:43:15.819Z,8.43
2022-08-21T06:45:46.715Z,7.95
2022-08-21T06:48:18.551Z,8.05
2022-08-21T06:50:47.772Z,8.50
2022-08-21T06:53:19.150Z,8.82
2022-08-21T06:55:47.701Z,9.10
2022-08-21T06:58:16.290Z,9.05
2022-08-21T07:00:49.799Z,8.43
2022-08-21T07:03:26.633Z,8.70
2022-08-21T07:05:55.381Z,8.88
2022-08-21T07:08:23.434Z,9.10
2022-08-21T07:10:51.742Z,9.90
2022-08-21T07:13:20.415Z,8.65
2022-08-21T07:15:50.182Z,8.85
2022-08-21T07:18:18.563Z,9.15
2022-08-21T07:20:47.614Z,9.10
2022-08-21T07:23:24.724Z,10.00
2022-08-21T07:25:52.940Z,9.57
2022-08-21T07:28:21.244Z,9.18
2022-08-21T07:30:54.276Z,10.45
2022-08-21T07:33:22.449Z,9.57
2022-08-21T07:35:50.371Z,10.70
2022-08-21T07:38:19.352Z,10.88
2022-08-21T07:40:47.800Z,10.68
2022-08-21T07:43:17.781Z,10.13
2022-08-21T07:45:46.092Z,10.38
2022-08-21T07:48:15.424Z,9.98
2022-08-21T07:50:44.189Z,9.73
2022-08-21T07:53:12.266Z,10.10
2022-08-21T07:55:40.728Z,10.07
2022-08-21T07:58:08.952Z,8.93
2022-08-21T08:00:37.129Z,8.65
2022-08-21T08:03:05.500Z,8.00
2022-08-21T08:05:38.129Z,7.35
2022-08-21T08:08:06.340Z,7.70
2022-08-21T08:10:34.370Z,6.97
2022-08-21T08:13:02.486Z,6.78
2022-08-21T08:15:32.440Z,6.05
2022-08-21T08:18:03.734Z,4.18
2022-08-21T08:20:31.697Z,5.03
2022-08-21T08:23:01.473Z,3.33
2022-08-21T08:25:32.799Z,2.60
2022-08-21T08:28:16.740Z,3.00
2022-08-21T08:30:46.313Z,2.70
2022-08-21T08:33:14.897Z,2.70
2022-08-21T08:35:43.344Z,2.65
2022-08-21T08:38:12.694Z,2.67
2022-08-21T08:40:46.969Z,2.30
2022-08-21T08:43:15.523Z,2.72
2022-08-21T08:45:51.035Z,2.97
2022-08-21T08:48:34.237Z,2.38
2022-08-21T08:51:04.949Z,2.60
2022-08-21T08:53:38.674Z,1.98
2022-08-21T08:56:07.973Z,2.38
2022-08-21T08:58:39.841Z,2.70
2022-08-21T09:01:12.366Z,2.38
2022-08-21T09:03:41.995Z,2.88
2022-08-21T09:06:16.051Z,2.50
2022-08-21T09:08:56.506Z,3.03
2022-08-21T09:11:30.025Z,3.17
2022-08-21T09:14:11.116Z,2.63
2022-08-21T09:16:48.493Z,2.65
2022-08-21T09:19:31.311Z,3.30
2022-08-21T09:22:06.669Z,2.70
2022-08-21T09:24:51.952Z,2.88
2022-08-21T09:27:23.032Z,3.05
2022-08-21T09:29:56.176Z,2.40
2022-08-21T09:32:37.202Z,2.60
2022-08-21T09:35:09.537Z,2.53
2022-08-21T09:37:49.959Z,2.42
2022-08-21T09:40:27.616Z,2.53
2022-08-21T09:42:58.004Z,2.45
2022-08-21T09:45:26.747Z,2.17
2022-08-21T09:47:55.021Z,2.35
2022-08-21T09:50:28.954Z,2.35
2022-08-21T09:53:01.091Z,2.72
2022-08-21T09:55:54.019Z,1.90
2022-08-21T09:58:22.730Z,2.30
2022-08-21T10:01:00.237Z,2.10
2022-08-21T10:03:29.362Z,2.40
2022-08-21T10:06:00.686Z,2.08
2022-08-21T10:08:30.568Z,2.10
2022-08-21T10:11:06.630Z,2.22
2022-08-21T10:13:49.169Z,2.35
2022-08-21T10:16:33.817Z,2.05
2022-08-21T10:19:21.905Z,2.53
2022-08-21T10:22:02.473Z,2.20
2022-08-21T10:24:35.465Z,2.22
2022-08-21T10:27:18.307Z,2.25
2022-08-21T10:29:52.473Z,1.90
2022-08-21T10:32:41.122Z,2.35
2022-08-21T10:35:14.895Z,2.53
2022-08-21T10:37:54.170Z,2.20
2022-08-21T10:40:29.442Z,2.50
2022-08-21T10:43:18.763Z,2.55
2022-08-21T10:45:58.924Z,1.95
2022-08-21T10:51:07.066Z,2.28
2022-08-21T10:53:47.614Z,2.30
2022-08-21T10:56:19.948Z,2.83
2022-08-21T10:59:00.568Z,2.13
2022-08-21T11:01:33.338Z,2.22
2022-08-21T11:04:12.899Z,1.88
2022-08-21T11:06:47.654Z,2.00
2022-08-21T11:09:18.411Z,2.40
2022-08-21T11:11:59.257Z,2.45
2022-08-21T11:14:50.084Z,2.65
2022-08-21T11:19:55.547Z,2.15
2022-08-21T11:22:29.065Z,2.42
2022-08-21T11:25:02.661Z,2.53
2022-08-21T11:27:36.558Z,2.20
2022-08-21T11:30:08.378Z,2.13
2022-08-21T11:32:56.720Z,2.05
2022-08-21T11:35:34.551Z,2.20
2022-08-21T11:38:24.262Z,2.17
2022-08-21T11:41:09.060Z,2.60
2022-08-21T11:43:42.347Z,2.20
2022-08-21T11:46:23.433Z,2.38
2022-08-21T11:49:04.376Z,2.33
2022-08-21T11:51:40.173Z,2.20
2022-08-21T11:54:25.363Z,1.98
2022-08-21T11:56:57.644Z,2.53
2022-08-21T11:59:38.820Z,2.22
2022-08-21T12:02:14.886Z,2.15
2022-08-21T12:04:48.214Z,2.67
2022-08-21T12:07:20.286Z,3.75
2022-08-21T12:09:57.301Z,2.20
2022-08-21T12:12:27.934Z,2.38
2022-08-21T12:15:17.845Z,2.10
2022-08-21T12:17:57.883Z,2.28
2022-08-21T12:20:47.417Z,2.67
2022-08-21T12:23:27.331Z,2.33
2022-08-21T12:26:05.132Z,2.22
2022-08-21T12:28:33.764Z,2.30
2022-08-21T12:31:01.785Z,2.20
2022-08-21T12:33:35.896Z,2.08
2022-08-21T12:36:08.369Z,2.63
2022-08-21T12:38:48.392Z,2.38
2022-08-21T12:43:52.981Z,2.20
2022-08-21T12:46:33.966Z,2.50
2022-08-21T12:49:10.428Z,2.22
2022-08-21T12:51:50.901Z,3.22
2022-08-21T12:54:26.849Z,2.20
2022-08-21T12:57:00.203Z,2.33
2022-08-21T12:59:28.572Z,2.30
2022-08-21T13:01:57.628Z,2.22
2022-08-21T13:04:37.153Z,2.43
2022-08-21T13:07:11.913Z,2.58
2022-08-21T13:09:48.714Z,2.28
2022-08-21T13:12:19.603Z,2.50
2022-08-21T13:14:48.973Z,2.40
2022-08-21T13:17:23.404Z,2.20
2022-08-21T13:19:57.988Z,2.40
2022-08-21T13:22:33.971Z,2.38
2022-08-21T13:25:06.659Z,3.00
2022-08-21T13:27:36.155Z,2.63
2022-08-21T13:30:10.907Z,2.20
2022-08-21T13:32:43.026Z,1.98
2022-08-21T13:35:19.049Z,2.33
2022-08-21T13:37:49.543Z,2.00
2022-08-21T13:40:20.730Z,2.35
2022-08-21T13:42:50.517Z,2.03
2022-08-21T13:45:24.141Z,1.83
2022-08-21T13:47:54.251Z,2.38
2022-08-21T13:50:27.617Z,2.25
2022-08-21T13:53:02.734Z,2.47
2022-08-21T13:55:40.386Z,2.20
2022-08-21T13:58:09.361Z,2.35
2022-08-21T14:00:45.859Z,2.00
2022-08-21T14:03:26.476Z,1.90
2022-08-21T14:05:56.089Z,2.03
2022-08-21T14:08:33.364Z,1.70
2022-08-21T14:11:03.114Z,2.25
2022-08-21T14:13:38.696Z,1.90
2022-08-21T14:16:14.642Z,2.25
2022-08-21T14:18:50.575Z,1.90
2022-08-21T14:21:32.188Z,2.25
2022-08-21T14:24:11.221Z,2.10
2022-08-21T14:26:47.866Z,2.28
2022-08-21T14:29:18.280Z,2.30
2022-08-21T14:31:52.017Z,2.50
2022-08-21T14:34:20.672Z,2.50
2022-08-21T14:36:52.035Z,2.38
2022-08-21T14:39:20.097Z,1.63
2022-08-21T14:41:49.853Z,2.03
2022-08-21T14:44:20.360Z,2.00
2022-08-21T14:46:56.396Z,2.42
2022-08-21T14:49:28.474Z,2.15
2022-08-21T14:51:59.221Z,2.17
2022-08-21T14:54:31.451Z,2.60
2022-08-21T14:57:02.704Z,2.88
2022-08-21T14:59:31.620Z,2.35
2022-08-21T15:01:59.571Z,2.20
2022-08-21T15:04:27.656Z,3.05
2022-08-21T15:06:57.258Z,2.33
2022-08-21T15:09:26.045Z,2.65
2022-08-21T15:11:55.587Z,3.10
2022-08-21T15:14:26.875Z,2.70
2022-08-21T15:16:54.919Z,2.67
2022-08-21T15:19:23.152Z,2.85
2022-08-21T15:21:51.286Z,2.42
2022-08-21T15:24:20.758Z,2.55
2022-08-21T15:26:49.321Z,2.72
2022-08-21T15:29:22.612Z,2.53
2022-08-21T15:31:56.898Z,2.30
2022-08-21T15:34:27.317Z,2.40
2022-08-21T15:36:57.150Z,2.40
2022-08-21T15:39:31.013Z,2.20
2022-08-21T15:42:06.234Z,2.42
2022-08-21T15:44:40.280Z,2.17
2022-08-21T15:47:09.118Z,2.25
2022-08-21T15:49:37.417Z,1.60
2022-08-21T15:52:05.497Z,1.67
2022-08-21T15:54:34.948Z,1.75
2022-08-21T15:57:02.977Z,1.83
2022-08-21T15:59:34.472Z,1.52
2022-08-21T16:02:02.648Z,1.92
2022-08-21T16:04:30.721Z,1.90
2022-08-21T16:07:04.347Z,2.30
2022-08-21T16:09:37.257Z,2.08
2022-08-21T16:12:07.278Z,1.90
2022-08-21T16:17:06.800Z,1.75
2022-08-21T16:19:35.525Z,1.92
2022-08-21T16:22:03.564Z,1.80
2022-08-21T16:24:31.570Z,1.52
2022-08-21T16:27:01.052Z,2.03
2022-08-21T16:29:35.851Z,1.70
2022-08-21T16:32:06.933Z,1.48
2022-08-21T16:34:35.308Z,1.95
2022-08-21T16:37:03.345Z,1.88
2022-08-21T16:39:31.855Z,2.58
2022-08-21T16:42:01.487Z,2.30
2022-08-21T16:44:30.136Z,2.55
2022-08-21T16:46:59.501Z,2.65
2022-08-21T16:49:27.966Z,1.90
2022-08-21T16:51:55.995Z,2.33
2022-08-21T16:54:24.137Z,2.30
2022-08-21T16:56:52.338Z,2.63
2022-08-21T16:59:24.297Z,2.13
2022-08-21T17:01:54.525Z,2.70
2022-08-21T17:04:22.666Z,2.80
2022-08-21T17:06:50.818Z,2.05
2022-08-21T17:09:19.570Z,2.45
2022-08-21T17:11:50.408Z,2.20
2022-08-21T17:14:20.923Z,2.28
2022-08-21T17:16:53.420Z,2.42
2022-08-21T17:19:21.697Z,2.17
2022-08-21T17:21:50.143Z,2.45
2022-08-21T17:24:18.081Z,1.90
2022-08-21T17:26:47.024Z,1.80
2022-08-21T17:29:16.153Z,2.03
2022-08-21T17:31:45.580Z,1.87
2022-08-21T17:34:16.863Z,1.88
2022-08-21T17:36:44.800Z,1.60
2022-08-21T17:39:13.968Z,1.60
2022-08-21T17:41:49.957Z,2.55
2022-08-21T17:44:24.504Z,1.95
2022-08-21T17:46:52.498Z,1.75
2022-08-21T17:49:21.955Z,2.60
2022-08-21T17:51:50.275Z,1.98
2022-08-21T17:54:18.250Z,1.50
2022-08-21T17:56:46.728Z,1.50
2022-08-21T17:59:15.597Z,1.70
2022-08-21T18:01:46.876Z,1.48
2022-08-21T18:04:15.747Z,1.80
2022-08-21T18:06:45.551Z,1.73
2022-08-21T18:09:14.721Z,1.80
2022-08-21T18:11:44.253Z,1.60
2022-08-21T18:14:13.646Z,1.70
2022-08-21T18:16:41.872Z,1.98
2022-08-21T18:19:15.578Z,1.67
2022-08-21T18:21:45.404Z,1.63
2022-08-21T18:24:13.603Z,1.75
2022-08-21T18:26:43.143Z,1.65
2022-08-21T18:29:16.879Z,2.00
2022-08-21T18:31:46.358Z,1.80
2022-08-21T18:34:22.109Z,1.83
2022-08-21T18:36:51.925Z,1.48
2022-08-21T18:39:36.047Z,1.65
2022-08-21T18:42:08.883Z,1.92
2022-08-21T18:44:37.737Z,1.80
2022-08-21T18:47:08.250Z,1.67
2022-08-21T18:49:36.353Z,1.20
2022-08-21T18:52:06.178Z,1.77
2022-08-21T18:54:34.263Z,1.52
2022-08-21T18:57:05.853Z,1.90
2022-08-21T18:59:37.965Z,1.58
2022-08-21T19:02:08.703Z,1.85
2022-08-21T19:04:44.358Z,2.15
2022-08-21T19:07:14.802Z,1.55
2022-08-21T19:09:52.967Z,2.28
2022-08-21T19:12:29.602Z,1.50
2022-08-21T19:14:57.687Z,1.90
2022-08-21T19:17:26.941Z,1.90
2022-08-21T19:19:56.682Z,1.67
2022-08-21T19:22:26.188Z,1.52
2022-08-21T19:24:54.514Z,1.60
2022-08-21T19:27:23.104Z,1.70
2022-08-21T19:29:51.518Z,1.52
2022-08-21T19:32:21.324Z,1.67
2022-08-21T19:34:51.218Z,2.00
2022-08-21T19:37:20.553Z,1.95
2022-08-21T19:39:50.524Z,1.40
2022-08-21T19:44:53.047Z,1.20
2022-08-21T19:47:29.474Z,1.30
2022-08-21T19:50:00.722Z,1.30
2022-08-21T19:52:32.688Z,1.60
2022-08-21T19:55:06.652Z,1.55
2022-08-21T19:57:34.818Z,1.50
2022-08-21T20:00:03.791Z,1.60
2022-08-21T20:02:35.742Z,1.50
2022-08-21T20:05:04.769Z,1.90
2022-08-21T20:07:33.212Z,1.45
2022-08-21T20:10:02.254Z,1.52
2022-08-21T20:12:31.702Z,1.27
2022-08-21T20:15:00.226Z,2.07
2022-08-21T20:17:28.438Z,1.77
2022-08-21T20:19:56.982Z,1.42
2022-08-21T20:22:25.229Z,1.90
2022-08-21T20:24:54.433Z,1.65
2022-08-21T20:27:26.479Z,1.65
2022-08-21T20:29:57.065Z,1.88
2022-08-21T20:32:25.051Z,1.73
2022-08-21T20:34:55.000Z,1.67
2022-08-21T20:37:36.258Z,1.65
2022-08-21T20:42:59.034Z,1.50
2022-08-21T20:45:32.660Z,1.60
2022-08-21T20:48:05.367Z,1.80
2022-08-21T20:50:38.553Z,1.75
2022-08-21T20:53:13.163Z,1.50
2022-08-21T20:55:46.839Z,1.58
2022-08-21T20:58:25.395Z,1.42
2022-08-21T21:01:02.567Z,1.58
2022-08-21T21:03:36.219Z,1.33
2022-08-21T21:06:09.104Z,1.95
2022-08-21T21:11:34.859Z,1.38
2022-08-21T21:14:12.190Z,1.73
2022-08-21T21:16:50.728Z,1.85
2022-08-21T21:19:27.604Z,1.90
2022-08-21T21:22:01.642Z,1.80
2022-08-21T21:24:36.669Z,1.67
2022-08-21T21:27:18.500Z,1.83
2022-08-21T21:29:51.024Z,1.70
2022-08-21T21:32:21.655Z,1.55
2022-08-21T21:37:26.077Z,1.63
2022-08-21T21:40:04.586Z,1.70
2022-08-21T21:42:42.663Z,1.75
2022-08-21T21:45:24.457Z,1.92
2022-08-21T21:51:03.156Z,1.50
2022-08-21T21:53:51.473Z,1.70
2022-08-21T21:56:29.040Z,1.90
2022-08-21T22:02:17.037Z,1.80
2022-08-21T22:04:59.164Z,1.65
2022-08-21T22:07:37.412Z,1.73
2022-08-21T22:10:19.634Z,1.67
2022-08-21T22:13:25.240Z,2.08
2022-08-21T22:15:54.781Z,1.60
2022-08-21T22:18:27.697Z,1.63
2022-08-21T22:21:02.785Z,1.88
2022-08-21T22:23:36.944Z,2.22
2022-08-21T22:26:11.018Z,2.72
2022-08-21T22:28:43.747Z,1.80
2022-08-21T22:34:17.871Z,1.80
2022-08-21T22:36:56.220Z,2.20
2022-08-21T22:39:34.431Z,2.17
2022-08-21T22:42:07.840Z,2.00
2022-08-21T22:44:51.666Z,2.00
2022-08-21T22:47:26.576Z,1.80
2022-08-21T22:49:58.556Z,2.03
2022-08-21T22:52:34.367Z,2.00
2022-08-21T22:55:17.531Z,1.90
2022-08-21T22:57:46.908Z,2.38
2022-08-21T23:00:38.190Z,1.90
2022-08-21T23:03:06.356Z,2.20
2022-08-21T23:05:44.936Z,1.80
2022-08-21T23:08:25.227Z,2.15
2022-08-21T23:13:26.163Z,2.00
2022-08-21T23:16:03.930Z,2.00
2022-08-21T23:18:44.722Z,2.17
2022-08-21T23:21:19.873Z,2.00
2022-08-21T23:24:01.567Z,2.40
2022-08-21T23:26:39.035Z,2.90
2022-08-21T23:29:24.916Z,2.33
2022-08-21T23:32:35.591Z,2.00
2022-08-21T23:35:16.181Z,1.83
2022-08-21T23:37:53.182Z,2.22
2022-08-21T23:40:39.154Z,1.75
2022-08-21T23:43:30.934Z,2.22
2022-08-21T23:48:48.551Z,2.15
2022-08-21T23:51:28.862Z,2.97
2022-08-21T23:54:12.687Z,2.33
2022-08-21T23:57:08.267Z,2.45
2022-08-21T23:59:49.779Z,2.22
